Time;durP1;ratioP1;P1;durP2;ratioP2;P2;SDS_P1;SDS_P2;PMS_P1;PMS_P2;Temp;Humidity;BMP_temperature;BMP_pressure;BME280_temperature;BME280_humidity;BME280_pressure;Samples;Min_cycle;Max_cycle;Signal;HPM_P1;HPM_P2
2021/07/27 00:02:00;;;;;;;11.13;8.13;;;;;;;17.30;100.00;99796.34;5058270;28;20425;-72
2021/07/27 00:04:27;;;;;;;10.07;8.15;;;;;;;17.22;100.00;99783.59;5057953;28;20056;-72
2021/07/27 00:06:53;;;;;;;13.95;9.50;;;;;;;17.20;100.00;99780.19;5058101;28;20048;-72
2021/07/27 00:09:20;;;;;;;15.23;9.13;;;;;;;17.24;100.00;99790.56;5040463;28;20381;-73
2021/07/27 00:11:47;;;;;;;16.02;9.90;;;;;;;17.15;100.00;99783.31;5058065;28;20131;-70
2021/07/27 00:14:14;;;;;;;13.45;8.98;;;;;;;17.20;100.00;99781.03;5040750;28;20049;-72
2021/07/27 00:16:40;;;;;;;15.70;9.85;;;;;;;17.18;100.00;99772.25;5009136;28;20208;-72
2021/07/27 00:19:07;;;;;;;15.55;9.73;;;;;;;17.18;100.00;99776.78;5037809;28;20320;-71
2021/07/27 00:21:34;;;;;;;12.45;9.15;;;;;;;17.19;100.00;99779.34;5038366;28;20376;-72
2021/07/27 00:24:01;;;;;;;16.88;10.77;;;;;;;17.23;100.00;99779.91;5038160;28;20096;-73
2021/07/27 00:26:27;;;;;;;15.32;9.60;;;;;;;17.16;100.00;99776.91;5037187;28;20060;-73
2021/07/27 00:28:54;;;;;;;24.98;11.77;;;;;;;17.20;100.00;99781.03;5037782;28;20049;-72
2021/07/27 00:31:21;;;;;;;19.00;11.23;;;;;;;17.10;100.00;99772.13;5037893;28;20099;-72
2021/07/27 00:33:48;;;;;;;14.73;11.32;;;;;;;17.08;100.00;99774.13;5037670;28;20052;-73
2021/07/27 00:36:15;;;;;;;16.48;12.05;;;;;;;17.03;100.00;99765.59;5038077;28;20136;-73
2021/07/27 00:38:42;;;;;;;25.80;14.32;;;;;;;17.07;100.00;99784.06;5037639;28;20430;-73
2021/07/27 00:41:09;;;;;;;19.52;12.85;;;;;;;17.04;100.00;99768.16;5037792;28;20058;-72
2021/07/27 00:43:35;;;;;;;23.92;13.07;;;;;;;17.06;100.00;99782.34;5036635;28;20475;-71
2021/07/27 00:46:02;;;;;;;25.15;12.70;;;;;;;17.08;100.00;99771.41;5036624;28;20049;-72
2021/07/27 00:48:29;;;;;;;18.48;13.02;;;;;;;17.11;100.00;99771.16;5036289;28;20088;-71
2021/07/27 00:50:55;;;;;;;21.70;12.60;;;;;;;17.19;100.00;99786.56;5037476;28;20068;-72
2021/07/27 00:53:22;;;;;;;20.27;13.63;;;;;;;17.20;100.00;99788.25;5053036;28;20045;-73
2021/07/27 00:55:51;;;;;;;20.05;12.70;;;;;;;17.18;100.00;99788.44;5037076;28;20123;-73
2021/07/27 00:58:18;;;;;;;20.83;13.50;;;;;;;17.15;100.00;99777.94;5037510;28;20049;-71
2021/07/27 01:00:44;;;;;;;22.90;13.93;;;;;;;16.97;100.00;99775.97;5037343;28;20115;-73
2021/07/27 01:03:11;;;;;;;19.15;13.77;;;;;;;17.01;100.00;99784.63;5035794;28;20057;-71
2021/07/27 01:05:39;;;;;;;20.30;13.25;;;;;;;17.01;100.00;99781.06;5037488;28;20107;-72
2021/07/27 01:08:05;;;;;;;18.05;12.77;;;;;;;16.94;100.00;99780.78;5037034;28;20049;-73
2021/07/27 01:10:32;;;;;;;19.20;13.05;;;;;;;16.92;100.00;99777.38;5037282;28;20057;-72
2021/07/27 01:12:59;;;;;;;20.15;13.25;;;;;;;16.89;100.00;99770.41;5037121;28;20052;-74
2021/07/27 01:15:26;;;;;;;17.45;13.25;;;;;;;16.92;100.00;99770.16;5041756;28;20157;-74
2021/07/27 01:18:00;;;;;;;16.73;12.27;;;;;;;16.91;100.00;99771.16;5056976;28;20049;-71
2021/07/27 01:20:48;;;;;;;21.70;12.55;;;;;;;16.85;100.00;99755.56;5037224;28;20103;-72
2021/07/27 01:39:48;;;;;;;21.05;13.25;;;;;;;16.68;100.00;99744.50;5036600;28;20050;-73
2021/07/27 01:42:15;;;;;;;18.45;13.00;;;;;;;16.63;100.00;99741.41;5003116;28;20053;-73
2021/07/27 01:44:46;;;;;;;22.98;13.60;;;;;;;16.58;100.00;99746.38;5036562;28;20049;-71
2021/07/27 01:47:22;;;;;;;19.48;12.98;;;;;;;16.41;100.00;99729.09;5036571;28;20053;-72
2021/07/27 01:49:50;;;;;;;20.50;12.93;;;;;;;16.55;100.00;99752.03;5036219;28;20060;-72
2021/07/27 01:52:17;;;;;;;17.70;13.68;;;;;;;16.54;100.00;99747.63;5036451;28;20060;-71
2021/07/27 01:54:46;;;;;;;18.90;13.05;;;;;;;16.49;100.00;99741.81;5036120;28;20084;-72
2021/07/27 01:57:14;;;;;;;17.02;12.27;;;;;;;16.52;100.00;99749.63;5036209;28;20427;-71
2021/07/27 01:59:41;;;;;;;18.58;13.40;;;;;;;16.46;100.00;99750.19;5018738;28;20049;-72
2021/07/27 02:02:12;;;;;;;22.88;12.93;;;;;;;16.45;100.00;99753.88;5002446;28;20397;-71
2021/07/27 02:04:39;;;;;;;18.27;12.18;;;;;;;16.39;100.00;99752.59;5035883;28;20144;-72
2021/07/27 02:07:07;;;;;;;19.40;11.57;;;;;;;16.38;100.00;99742.81;5035628;28;20045;-72
2021/07/27 02:09:38;;;;;;;14.48;11.27;;;;;;;16.43;100.00;99738.72;5018779;28;20049;-72
2021/07/27 02:12:05;;;;;;;17.02;11.85;;;;;;;16.43;100.00;99736.03;5018914;28;20076;-72
2021/07/27 02:17:17;;;;;;;20.42;11.55;;;;;;;16.31;100.00;99739.84;5036111;28;20050;-71
2021/07/27 02:19:43;;;;;;;16.63;10.88;;;;;;;16.32;100.00;99738.84;5035716;28;20049;-72
2021/07/27 02:22:10;;;;;;;16.17;11.23;;;;;;;16.22;100.00;99738.00;5035481;28;20049;-70
2021/07/27 02:24:37;;;;;;;20.85;10.85;;;;;;;16.21;100.00;99734.47;5055613;28;20103;-71
2021/07/27 02:27:03;;;;;;;17.55;11.02;;;;;;;16.22;100.00;99727.22;5055491;28;20103;-72
2021/07/27 02:29:30;;;;;;;20.67;11.00;;;;;;;16.17;100.00;99730.34;5054570;28;20110;-71
2021/07/27 02:31:56;;;;;;;16.92;11.68;;;;;;;16.08;100.00;99720.44;5055792;28;20061;-72
2021/07/27 02:34:31;;;;;;;15.63;11.43;;;;;;;16.12;100.00;99729.94;5055486;28;20057;-71
2021/07/27 02:37:01;;;;;;;18.83;11.88;;;;;;;16.12;100.00;99727.25;5055459;28;20040;-72
2021/07/27 02:39:28;;;;;;;21.35;12.20;;;;;;;16.15;100.00;99727.81;5055429;28;20426;-71
2021/07/27 02:41:54;;;;;;;17.92;11.60;;;;;;;16.14;100.00;99730.63;5055394;28;20426;-71
2021/07/27 02:44:21;;;;;;;23.20;12.55;;;;;;;16.15;100.00;99730.50;5055593;28;20061;-71
2021/07/27 02:46:47;;;;;;;21.42;12.93;;;;;;;16.13;100.00;99724.38;5021240;28;20492;-72
2021/07/27 02:49:14;;;;;;;23.50;11.95;;;;;;;16.06;100.00;99730.50;5037695;28;20053;-72
2021/07/27 02:51:56;;;;;;;16.92;12.18;;;;;;;16.09;100.00;99735.59;5055482;28;20049;-71
2021/07/27 02:54:23;;;;;;;17.63;11.50;;;;;;;16.01;100.00;99729.06;5055287;28;20354;-70
2021/07/27 02:56:49;;;;;;;17.33;12.65;;;;;;;16.14;100.00;99742.25;5037690;28;20053;-71
2021/07/27 02:59:16;;;;;;;18.70;12.82;;;;;;;16.06;100.00;99734.00;5037841;28;20109;-72
2021/07/27 03:01:46;;;;;;;18.42;12.45;;;;;;;16.04;100.00;99727.94;5055282;28;20095;-72
2021/07/27 03:04:12;;;;;;;21.27;12.93;;;;;;;16.02;100.00;99733.44;5055002;28;20595;-72
2021/07/27 03:06:39;;;;;;;18.90;12.10;;;;;;;15.96;100.00;99733.16;5055222;28;20045;-73
2021/07/27 03:12:04;;;;;;;20.63;13.50;;;;;;;15.94;100.00;99721.66;5046030;28;20076;-72
2021/07/27 03:14:31;;;;;;;17.67;13.70;;;;;;;15.92;100.00;99723.66;5055200;28;20106;-72
2021/07/27 03:16:58;;;;;;;19.02;12.45;;;;;;;15.94;100.00;99738.69;5037207;28;20053;-70
2021/07/27 03:19:25;;;;;;;20.50;13.30;;;;;;;15.97;100.00;99740.25;5019979;28;20084;-71
2021/07/27 03:21:52;;;;;;;18.92;12.98;;;;;;;15.96;100.00;99736.69;5053915;28;20049;-72
2021/07/27 03:24:18;;;;;;;20.73;13.10;;;;;;;15.98;100.00;99744.63;5041584;28;20458;-71
2021/07/27 03:26:45;;;;;;;17.88;13.48;;;;;;;15.93;100.00;99742.38;5058719;28;20052;-72
2021/07/27 03:29:12;;;;;;;18.77;13.93;;;;;;;15.93;100.00;99741.50;5059010;28;20067;-70
2021/07/27 03:31:38;;;;;;;21.13;13.82;;;;;;;15.88;100.00;99726.63;5059069;28;20106;-71
2021/07/27 03:34:05;;;;;;;17.52;13.07;;;;;;;15.97;100.00;99730.31;5058937;28;20049;-72
2021/07/27 03:36:31;;;;;;;17.20;12.75;;;;;;;15.99;100.00;99725.66;5058770;28;20427;-71
2021/07/27 03:38:58;;;;;;;16.85;12.90;;;;;;;16.00;100.00;99724.66;5058772;28;20703;-72
2021/07/27 03:41:25;;;;;;;20.40;14.18;;;;;;;16.01;100.00;99722.81;5058903;28;20049;-71
2021/07/27 03:43:52;;;;;;;20.80;14.60;;;;;;;16.02;100.00;99722.69;5059044;28;20045;-73
2021/07/27 03:46:19;;;;;;;19.50;13.15;;;;;;;16.00;100.00;99718.41;5041241;28;20045;-71
2021/07/27 03:48:45;;;;;;;18.33;13.68;;;;;;;16.05;100.00;99723.38;5058666;28;20102;-72
2021/07/27 03:51:13;;;;;;;19.27;12.55;;;;;;;16.02;100.00;99720.00;5058473;28;20053;-72
2021/07/27 03:53:39;;;;;;;18.75;12.95;;;;;;;16.07;100.00;99726.81;5058570;28;20099;-72
2021/07/27 03:56:11;;;;;;;23.85;13.15;;;;;;;16.08;100.00;99717.72;5058452;28;20114;-72
2021/07/27 03:58:38;;;;;;;18.38;12.00;;;;;;;16.09;100.00;99719.44;5040841;28;20529;-71
2021/07/27 04:01:06;;;;;;;20.52;13.18;;;;;;;16.07;100.00;99724.13;5058534;28;20064;-71
2021/07/27 04:03:33;;;;;;;19.85;12.65;;;;;;;16.08;100.00;99715.88;5058274;28;20351;-70
2021/07/27 04:06:00;;;;;;;24.10;13.85;;;;;;;16.11;100.00;99718.31;5058502;28;20049;-71
2021/07/27 04:08:27;;;;;;;14.98;11.93;;;;;;;16.15;100.00;99719.72;5040959;28;20172;-72
2021/07/27 04:11:00;;;;;;;22.38;13.30;;;;;;;16.15;100.00;99711.66;5058581;28;20102;-70
2021/07/27 04:13:28;;;;;;;23.92;12.52;;;;;;;16.14;100.00;99714.47;5058514;28;20059;-72
2021/07/27 04:15:55;;;;;;;19.13;13.75;;;;;;;16.27;100.00;99722.25;5049277;28;20050;-72
2021/07/27 04:18:22;;;;;;;20.55;13.27;;;;;;;16.23;100.00;99707.41;5038257;28;20042;-71
2021/07/27 04:20:49;;;;;;;16.45;13.13;;;;;;;16.26;100.00;99715.19;5044491;28;20114;-72
2021/07/27 04:23:16;;;;;;;17.85;12.80;;;;;;;16.29;100.00;99717.63;5057861;28;20060;-71
2021/07/27 04:25:45;;;;;;;19.52;13.00;;;;;;;16.31;100.00;99723.69;5058108;28;20505;-70
2021/07/27 04:28:12;;;;;;;16.73;12.65;;;;;;;16.26;100.00;99713.34;5057867;28;20171;-70
2021/07/27 04:30:38;;;;;;;21.65;13.05;;;;;;;16.30;100.00;99730.06;5057079;28;20111;-71
2021/07/27 04:33:05;;;;;;;14.88;12.30;;;;;;;16.23;100.00;99724.41;5056564;28;20057;-71
2021/07/27 04:35:32;;;;;;;19.38;12.73;;;;;;;16.21;100.00;99720.13;5040117;28;20084;-70
2021/07/27 04:37:58;;;;;;;22.15;12.75;;;;;;;16.24;100.00;99725.25;5057743;28;20107;-71
2021/07/27 04:40:25;;;;;;;15.73;10.75;;;;;;;16.21;100.00;99723.69;5057564;28;20110;-71
2021/07/27 04:42:51;;;;;;;20.83;11.98;;;;;;;16.26;100.00;99729.50;5057456;28;20430;-71
2021/07/27 04:45:18;;;;;;;16.20;10.70;;;;;;;16.37;100.00;99722.28;5057420;28;20114;-70
2021/07/27 04:47:45;;;;;;;17.02;10.48;;;;;;;16.31;100.00;99721.00;5057281;28;20092;-72
2021/07/27 04:50:12;;;;;;;12.65;10.70;;;;;;;16.33;100.00;99713.63;5057203;28;20068;-71
2021/07/27 04:52:41;;;;;;;13.45;10.70;;;;;;;16.22;100.00;99717.31;5057510;28;20080;-70
2021/07/27 04:55:09;;;;;;;14.25;10.98;;;;;;;16.25;100.00;99722.41;5039903;28;20064;-70
2021/07/27 04:57:36;;;;;;;15.75;10.75;;;;;;;16.23;100.00;99721.69;5057209;28;20434;-70
2021/07/27 05:00:09;;;;;;;14.25;11.25;;;;;;;16.29;100.00;99723.00;5057055;28;20098;-72
2021/07/27 05:02:38;;;;;;;15.55;11.50;;;;;;;16.27;100.00;99717.75;5053531;28;20041;-72
2021/07/27 05:05:06;;;;;;;15.95;11.07;;;;;;;16.41;100.00;99721.84;5039381;28;20053;-72
2021/07/27 05:07:33;;;;;;;13.65;10.40;;;;;;;16.51;100.00;99726.38;5056501;28;20045;-71
2021/07/27 05:10:04;;;;;;;14.82;10.15;;;;;;;16.55;100.00;99722.38;5056422;28;20056;-71
2021/07/27 05:12:31;;;;;;;12.65;9.48;;;;;;;16.57;99.97;99725.81;5039473;28;20099;-72
2021/07/27 05:14:58;;;;;;;14.85;10.88;;;;;;;16.60;99.21;99719.28;5056703;28;20048;-72
2021/07/27 05:17:24;;;;;;;14.10;10.43;;;;;;;16.59;99.84;99722.94;5057080;28;20049;-73
2021/07/27 05:19:53;;;;;;;12.77;10.55;;;;;;;16.55;100.00;99719.69;5056759;28;20045;-72
2021/07/27 05:22:22;;;;;;;14.60;10.80;;;;;;;16.49;99.78;99696.03;5038673;28;20053;-72
2021/07/27 05:24:51;;;;;;;13.27;9.98;;;;;;;16.61;100.00;99711.03;5056836;28;20064;-72
2021/07/27 05:27:25;;;;;;;14.25;10.05;;;;;;;16.65;100.00;99706.22;5019476;28;20366;-72
2021/07/27 05:29:53;;;;;;;12.57;9.90;;;;;;;16.62;99.91;99682.28;5035708;28;20050;-73
2021/07/27 05:32:22;;;;;;;15.15;10.38;;;;;;;16.76;98.94;99702.50;5044841;28;20059;-75
2021/07/27 05:34:49;;;;;;;11.88;9.80;;;;;;;16.80;97.96;99701.22;5042106;28;20055;-73
2021/07/27 05:37:16;;;;;;;13.30;9.98;;;;;;;16.89;97.79;99719.22;5055645;28;20154;-73
2021/07/27 05:39:43;;;;;;;13.48;9.57;;;;;;;16.93;98.12;99708.97;5055790;28;20056;-72
2021/07/27 05:42:10;;;;;;;13.45;9.13;;;;;;;16.92;96.96;99710.84;5054901;28;20045;-72
2021/07/27 05:44:37;;;;;;;14.43;9.82;;;;;;;17.05;96.62;99721.31;5056033;28;20389;-74
2021/07/27 05:47:06;;;;;;;12.20;9.45;;;;;;;17.02;96.98;99713.56;5056471;28;20072;-70
2021/07/27 05:49:35;;;;;;;12.55;9.07;;;;;;;17.06;96.79;99714.09;5055908;28;20437;-72
2021/07/27 05:52:02;;;;;;;11.48;9.38;;;;;;;17.17;95.77;99719.28;5056467;28;20048;-72
2021/07/27 05:54:28;;;;;;;11.55;9.27;;;;;;;17.18;96.94;99712.94;5054380;28;20057;-72
2021/07/27 05:56:55;;;;;;;13.77;9.82;;;;;;;17.29;96.25;99716.41;5055379;28;20438;-70
2021/07/27 05:59:22;;;;;;;14.65;9.50;;;;;;;17.35;95.23;99718.53;5038216;28;20099;-73
2021/07/27 06:01:49;;;;;;;12.10;10.10;;;;;;;17.35;95.89;99708.59;5055812;28;20052;-75
2021/07/27 06:04:16;;;;;;;13.73;9.52;;;;;;;17.41;95.96;99714.38;5055515;28;20053;-74
2021/07/27 06:06:43;;;;;;;12.10;9.25;;;;;;;17.41;95.95;99717.94;5038448;28;20107;-73
2021/07/27 06:09:14;;;;;;;12.02;9.52;;;;;;;17.44;95.27;99712.22;5037910;28;20053;-73
2021/07/27 06:11:41;;;;;;;12.30;9.88;;;;;;;17.53;95.24;99715.03;5055202;28;20053;-74
2021/07/27 06:14:08;;;;;;;12.15;10.00;;;;;;;17.46;95.13;99712.09;5038279;28;20107;-74
2021/07/27 06:16:39;;;;;;;13.52;10.50;;;;;;;17.46;96.09;99718.34;5059187;28;20052;-74
2021/07/27 06:19:07;;;;;;;13.68;10.60;;;;;;;17.54;95.49;99714.88;5069210;28;20052;-73
2021/07/27 06:21:38;;;;;;;11.82;9.75;;;;;;;17.54;94.97;99716.75;5054987;28;20045;-73
2021/07/27 06:24:08;;;;;;;;;;;;;;;17.58;95.36;99715.41;5059328;28;20048;-74
2021/07/27 06:26:35;;;;;;;12.85;10.20;;;;;;;17.65;94.57;99708.41;5048281;28;19971;-71
2021/07/27 06:29:04;;;;;;;14.00;10.70;;;;;;;17.74;94.29;99712.94;5037636;28;20419;-77
2021/07/27 06:31:31;;;;;;;13.95;10.30;;;;;;;17.76;93.76;99713.63;5051835;28;20095;-73
2021/07/27 06:33:58;;;;;;;15.88;11.40;;;;;;;17.84;93.58;99712.00;5050567;28;20107;-73
2021/07/27 06:36:25;;;;;;;12.48;10.35;;;;;;;17.86;94.34;99720.81;5053310;28;20051;-74
2021/07/27 06:38:51;;;;;;;14.98;10.70;;;;;;;17.91;94.14;99723.88;5053145;28;20112;-73
2021/07/27 06:41:18;;;;;;;14.93;10.40;;;;;;;18.02;93.63;99726.38;5053549;28;20397;-72
2021/07/27 06:43:44;;;;;;;16.15;10.57;;;;;;;18.04;92.45;99708.16;5054141;28;20053;-73
2021/07/27 06:46:11;;;;;;;14.27;11.13;;;;;;;18.18;92.74;99714.06;5054726;28;20742;-74
2021/07/27 06:48:39;;;;;;;14.38;10.93;;;;;;;18.18;92.70;99717.63;5054878;28;20412;-74
2021/07/27 06:51:13;;;;;;;15.77;10.55;;;;;;;18.24;92.24;99718.84;5055164;28;20056;-73
2021/07/27 06:53:41;;;;;;;12.90;10.30;;;;;;;18.27;91.01;99713.16;5055218;28;20053;-72
2021/07/27 06:56:09;;;;;;;13.57;11.23;;;;;;;18.27;90.75;99717.69;5055587;28;20110;-71
2021/07/27 06:58:39;;;;;;;12.98;10.23;;;;;;;18.18;91.56;99705.97;5055459;28;20048;-73
2021/07/27 07:01:10;;;;;;;13.63;11.00;;;;;;;18.25;92.19;99725.94;5037928;28;20362;-73
2021/07/27 07:03:41;;;;;;;13.43;10.50;;;;;;;18.35;91.54;99719.63;5055091;28;20068;-72
2021/07/27 07:06:11;;;;;;;15.75;10.70;;;;;;;18.45;92.03;99731.19;5046853;28;20046;-73
2021/07/27 07:08:39;;;;;;;15.52;10.70;;;;;;;18.62;91.21;99734.03;5017952;28;20053;-73
2021/07/27 07:11:06;;;;;;;13.35;9.95;;;;;;;18.68;89.37;99728.00;5035052;28;20053;-72
2021/07/27 07:13:33;;;;;;;13.27;10.68;;;;;;;18.66;90.14;99733.56;5034317;28;20130;-72
2021/07/27 07:16:03;;;;;;;13.85;10.55;;;;;;;18.70;90.54;99728.69;5044703;28;20053;-72
2021/07/27 07:18:30;;;;;;;16.60;10.10;;;;;;;18.65;90.69;99710.25;5054874;28;20095;-73
2021/07/27 07:20:56;;;;;;;12.63;10.45;;;;;;;18.81;89.33;99738.41;5047717;28;20061;-72
2021/07/27 07:23:23;;;;;;;14.45;10.93;;;;;;;18.80;89.36;99739.41;5037493;28;20056;-71
2021/07/27 07:25:51;;;;;;;12.93;10.23;;;;;;;18.82;88.65;99737.38;5054975;28;20063;-72
2021/07/27 07:28:20;;;;;;;17.50;10.57;;;;;;;18.87;87.40;99741.31;5037140;28;20099;-72
2021/07/27 07:30:47;;;;;;;12.93;11.02;;;;;;;18.87;88.28;99738.59;5054930;28;20136;-71
2021/07/27 07:33:14;;;;;;;13.15;10.48;;;;;;;19.00;87.13;99734.63;5054002;28;20045;-72
2021/07/27 07:35:42;;;;;;;12.88;10.52;;;;;;;19.03;88.12;99728.09;5054258;28;20048;-71
2021/07/27 07:38:08;;;;;;;13.68;10.00;;;;;;;19.11;87.76;99734.41;5054988;28;20109;-72
2021/07/27 07:40:35;;;;;;;14.43;10.88;;;;;;;19.26;86.13;99731.97;5054778;28;20075;-73
2021/07/27 07:43:02;;;;;;;15.48;11.05;;;;;;;19.27;86.10;99724.66;5054590;28;20077;-72
2021/07/27 07:45:29;;;;;;;14.73;11.20;;;;;;;19.49;85.21;99738.63;5054846;28;20053;-74
2021/07/27 07:47:56;;;;;;;13.05;10.27;;;;;;;19.59;86.14;99733.97;5054778;28;20053;-73
2021/07/27 07:50:23;;;;;;;15.13;11.13;;;;;;;19.63;84.03;99729.06;5054560;28;20335;-73
2021/07/27 07:53:00;;;;;;;13.15;10.55;;;;;;;19.54;85.41;99729.03;5037170;28;20053;-74
2021/07/27 07:55:28;;;;;;;14.48;10.82;;;;;;;19.45;85.24;99730.00;5053156;28;20098;-74
2021/07/27 07:58:01;;;;;;;16.10;11.38;;;;;;;19.53;86.68;99731.91;5054883;28;20346;-72
2021/07/27 08:00:28;;;;;;;16.40;11.73;;;;;;;19.64;85.10;99725.34;5054770;28;20236;-71
2021/07/27 08:02:54;;;;;;;14.82;12.15;;;;;;;19.71;84.95;99737.22;5054748;28;20346;-72
2021/07/27 08:05:22;;;;;;;15.23;11.70;;;;;;;19.76;83.79;99725.88;5054530;28;20056;-72
2021/07/27 08:07:49;;;;;;;13.77;10.43;;;;;;;19.81;83.44;99723.53;5059174;28;20053;-73
2021/07/27 08:10:16;;;;;;;16.25;11.38;;;;;;;19.85;83.36;99721.34;5058028;28;20052;-73
2021/07/27 08:12:46;;;;;;;15.45;11.07;;;;;;;19.94;83.37;99723.06;5040586;28;20133;-74
2021/07/27 08:15:17;;;;;;;12.88;10.18;;;;;;;19.97;84.35;99719.19;5024616;28;20434;-72
2021/07/27 08:17:45;;;;;;;19.70;11.48;;;;;;;19.95;85.58;99717.50;5040835;28;20053;-72
2021/07/27 08:20:12;;;;;;;13.63;10.70;;;;;;;20.01;83.66;99716.00;5058225;28;20045;-73
2021/07/27 08:22:41;;;;;;;13.48;10.77;;;;;;;20.17;83.48;99719.75;5058029;28;20049;-72
2021/07/27 08:25:15;;;;;;;14.85;11.07;;;;;;;20.22;83.10;99711.97;5058224;28;20053;-71
2021/07/27 08:27:43;;;;;;;14.82;11.18;;;;;;;20.38;82.32;99711.13;5057897;28;20324;-74
2021/07/27 08:30:13;;;;;;;18.75;10.25;;;;;;;20.40;82.27;99714.53;5040145;28;20427;-74
2021/07/27 08:32:51;;;;;;;13.00;10.52;;;;;;;20.60;81.13;99720.44;5040837;28;20064;-73
2021/07/27 08:35:20;;;;;;;13.18;9.93;;;;;;;20.65;80.42;99722.66;5057695;28;20142;-73
2021/07/27 08:37:47;;;;;;;13.98;10.65;;;;;;;20.77;80.41;99729.41;5058105;28;20103;-72
2021/07/27 08:40:17;;;;;;;13.30;10.30;;;;;;;20.74;79.23;99729.75;5057603;28;20369;-73
2021/07/27 08:42:46;;;;;;;13.02;10.57;;;;;;;20.89;79.48;99729.94;5056904;28;20401;-74
2021/07/27 08:45:14;;;;;;;15.82;10.27;;;;;;;20.86;80.19;99718.59;5037587;28;20447;-73
2021/07/27 08:47:48;;;;;;;13.35;10.60;;;;;;;20.98;79.27;99714.47;5020203;28;20060;-73
2021/07/27 08:50:16;;;;;;;11.73;9.75;;;;;;;21.16;79.92;99722.44;5037671;28;20100;-73
2021/07/27 08:52:43;;;;;;;11.02;9.35;;;;;;;21.23;79.14;99719.84;5037811;28;20053;-74
2021/07/27 08:55:10;;;;;;;19.02;10.43;;;;;;;21.19;79.05;99718.50;5037629;28;20057;-72
2021/07/27 08:57:58;;;;;;;11.32;9.30;;;;;;;21.08;77.43;99710.75;5020173;28;20064;-71
2021/07/27 09:00:26;;;;;;;12.60;8.88;;;;;;;21.11;77.55;99715.81;5037318;28;20132;-73
2021/07/27 09:02:53;;;;;;;10.65;9.18;;;;;;;21.01;77.09;99721.44;5037556;28;20060;-73
2021/07/27 09:05:22;;;;;;;12.95;9.05;;;;;;;21.06;77.14;99705.47;5037123;28;20053;-73
2021/07/27 09:07:48;;;;;;;11.80;9.27;;;;;;;21.14;76.29;99723.63;5037197;28;20049;-73
2021/07/27 09:10:18;;;;;;;11.30;8.50;;;;;;;21.27;76.37;99726.63;5037230;28;20049;-73
2021/07/27 09:13:06;;;;;;;12.60;8.70;;;;;;;21.29;75.29;99730.00;5037261;28;20054;-72
2021/07/27 09:15:40;;;;;;;11.30;8.50;;;;;;;21.39;75.67;99737.09;5037007;28;20057;-73
2021/07/27 09:18:12;;;;;;;10.13;8.65;;;;;;;21.38;75.84;99740.84;5036848;28;20049;-74
2021/07/27 09:20:46;;;;;;;16.83;8.93;;;;;;;21.33;73.66;99732.34;5041623;28;20041;-73
2021/07/27 09:23:15;;;;;;;9.98;7.80;;;;;;;21.24;75.01;99748.69;5057130;28;20418;-73
2021/07/27 09:25:48;;;;;;;13.32;8.63;;;;;;;21.09;75.55;99736.84;5039453;28;20053;-74
2021/07/27 09:28:16;;;;;;;13.02;7.97;;;;;;;21.08;75.83;99737.88;5056711;28;20053;-73
2021/07/27 09:30:44;;;;;;;12.63;8.23;;;;;;;21.08;74.18;99744.13;5056889;28;20053;-72
2021/07/27 09:33:13;;;;;;;11.45;8.20;;;;;;;21.34;75.21;99747.66;5056780;28;20059;-72
2021/07/27 09:35:41;;;;;;;15.48;9.35;;;;;;;21.35;72.57;99743.91;5056548;28;20053;-70
2021/07/27 09:38:11;;;;;;;11.60;7.93;;;;;;;21.53;74.98;99741.78;5056478;28;20044;-71
2021/07/27 09:40:49;;;;;;;;;;;;;;;21.50;72.85;99749.44;5057056;28;20061;-72
2021/07/27 09:43:37;;;;;;;17.58;8.00;;;;;;;21.60;73.28;99752.81;5048572;28;19974;-72
2021/07/27 09:46:04;;;;;;;13.25;8.45;;;;;;;21.57;73.02;99743.13;5036343;28;20049;-71
2021/07/27 09:48:33;;;;;;;12.38;9.23;;;;;;;21.57;73.33;99743.13;5036302;28;20434;-72
2021/07/27 09:51:00;;;;;;;15.43;9.23;;;;;;;21.50;74.96;99744.88;5019392;28;20103;-72
2021/07/27 09:53:26;;;;;;;13.05;8.55;;;;;;;21.61;73.75;99745.53;5036513;28;20123;-72
2021/07/27 09:55:54;;;;;;;11.18;8.32;;;;;;;21.63;73.68;99740.75;5036326;28;20053;-72
2021/07/27 09:58:20;;;;;;;12.45;8.07;;;;;;;21.44;74.16;99743.72;5036171;28;20111;-72
2021/07/27 10:00:52;;;;;;;13.43;8.40;;;;;;;21.46;73.11;99739.97;5039969;28;20045;-73
2021/07/27 10:03:24;;;;;;;14.27;8.32;;;;;;;21.60;73.12;99741.94;5052084;28;20719;-74
2021/07/27 10:06:43;;;;;;;10.55;8.50;;;;;;;21.68;72.60;99750.03;5029519;28;20109;-73
2021/07/27 10:09:21;;;;;;;13.48;8.75;;;;;;;21.50;72.12;99750.28;5038331;28;20053;-73
2021/07/27 10:11:48;;;;;;;11.32;8.45;;;;;;;21.39;72.67;99750.66;5038939;28;20057;-75
2021/07/27 10:14:16;;;;;;;11.52;8.55;;;;;;;21.33;74.16;99754.06;5036315;28;20103;-73
2021/07/27 10:16:44;;;;;;;12.18;8.57;;;;;;;21.29;75.77;99765.28;5036290;28;20111;-73
2021/07/27 10:19:15;;;;;;;11.70;8.43;;;;;;;21.10;74.90;99747.53;5026172;28;20046;-73
2021/07/27 10:21:43;;;;;;;9.65;8.55;;;;;;;21.24;75.43;99761.41;5049113;28;20056;-74
2021/07/27 10:24:14;;;;;;;11.68;7.95;;;;;;;21.26;76.21;99762.09;5038377;28;20052;-72
2021/07/27 10:26:42;;;;;;;14.50;8.88;;;;;;;21.35;78.80;99762.91;5055718;28;20122;-74
2021/07/27 10:29:09;;;;;;;12.68;8.95;;;;;;;21.13;78.90;99766.16;5021475;28;20421;-72
2021/07/27 10:31:38;;;;;;;14.40;9.35;;;;;;;21.07;78.91;99760.59;5057802;28;20072;-72
2021/07/27 10:34:07;;;;;;;12.70;8.65;;;;;;;21.10;77.72;99757.53;5058314;28;20140;-73
2021/07/27 10:36:36;;;;;;;11.60;8.95;;;;;;;21.34;78.32;99753.06;5048524;28;20686;-72
2021/07/27 10:39:19;;;;;;;13.70;8.93;;;;;;;21.50;76.98;99766.59;5036046;28;20453;-72
2021/07/27 10:41:48;;;;;;;16.10;9.55;;;;;;;21.58;74.95;99763.84;5035741;28;20057;-71
2021/07/27 10:44:16;;;;;;;11.25;8.68;;;;;;;21.86;73.92;99776.16;5048721;28;20106;-74
2021/07/27 10:46:45;;;;;;;14.52;9.00;;;;;;;21.94;72.83;99772.53;5055880;28;20430;-74
2021/07/27 10:49:24;;;;;;;13.70;8.68;;;;;;;22.08;72.83;99770.94;5055409;28;20111;-74
2021/07/27 10:51:53;;;;;;;12.68;8.00;;;;;;;22.22;73.40;99761.19;5055419;28;20064;-72
2021/07/27 10:54:31;;;;;;;11.70;8.90;;;;;;;22.67;71.74;99757.81;5037884;28;20434;-73
2021/07/27 10:57:06;;;;;;;12.75;8.77;;;;;;;22.92;72.10;99756.56;5037689;28;20170;-74
2021/07/27 10:59:35;;;;;;;11.55;8.52;;;;;;;23.00;72.44;99752.06;5055300;28;20049;-73
2021/07/27 11:02:08;;;;;;;11.70;8.13;;;;;;;23.03;69.54;99751.69;5051249;28;20090;-74
2021/07/27 11:04:35;;;;;;;14.70;8.30;;;;;;;22.75;67.90;99755.88;5054755;28;20060;-73
2021/07/27 11:07:16;;;;;;;17.58;8.68;;;;;;;22.79;68.07;99754.44;5055385;28;20076;-73
2021/07/27 11:09:48;;;;;;;11.63;8.57;;;;;;;22.94;66.53;99742.78;5037483;28;20056;-73
2021/07/27 11:12:31;;;;;;;14.45;8.10;;;;;;;23.06;67.67;99756.75;5037415;28;20045;-73
2021/07/27 11:15:11;;;;;;;12.52;7.93;;;;;;;23.27;67.04;99739.69;5055424;28;20083;-74
2021/07/27 11:17:38;;;;;;;;;;;;;;;23.32;66.76;99750.06;5055561;28;20057;-73
2021/07/27 11:20:07;;;;;;;12.23;7.72;;;;;;;23.20;65.17;99744.19;5055151;28;20011;-73
2021/07/27 11:22:34;;;;;;;15.85;8.75;;;;;;;23.18;65.06;99738.94;5054895;28;20053;-74
2021/07/27 11:25:01;;;;;;;12.77;8.10;;;;;;;23.49;65.26;99733.50;5054901;28;20063;-74
2021/07/27 11:27:29;;;;;;;11.52;8.05;;;;;;;23.56;65.34;99729.84;5054981;28;20102;-73
2021/07/27 11:30:02;;;;;;;12.38;8.43;;;;;;;23.66;63.23;99729.56;5054747;28;20041;-73
2021/07/27 11:32:41;;;;;;;13.23;8.48;;;;;;;23.08;64.54;99704.88;5055110;28;20106;-74
2021/07/27 11:35:21;;;;;;;14.02;8.43;;;;;;;23.31;65.38;99721.97;5054876;28;20431;-73
2021/07/27 11:38:05;;;;;;;13.25;8.02;;;;;;;23.19;65.87;99718.00;5054822;28;20103;-73
2021/07/27 11:40:33;;;;;;;14.80;8.30;;;;;;;23.23;65.05;99721.19;5056827;28;20049;-74
2021/07/27 11:43:09;;;;;;;12.85;8.55;;;;;;;23.31;64.72;99715.69;5058690;28;20053;-73
2021/07/27 11:45:40;;;;;;;13.13;7.72;;;;;;;23.43;64.03;99718.78;5058914;28;20052;-73
2021/07/27 11:48:08;;;;;;;9.50;6.95;;;;;;;23.76;63.05;99715.63;5058719;28;20045;-74